Time;durP1;ratioP1;P1;durP2;ratioP2;P2;SDS_P1;SDS_P2;PMS_P1;PMS_P2;Temp;Humidity;BMP_temperature;BMP_pressure;BME280_temperature;BME280_humidity;BME280_pressure;Samples;Min_cycle;Max_cycle;Signal;HPM_P1;HPM_P2
2021/01/18 00:00:12;;;;;;;18.63;10.80;;;;;;;-4.35;63.60;100982.56;5030493;28;20125;-72
2021/01/18 00:02:38;;;;;;;21.50;12.70;;;;;;;-4.46;63.93;100988.97;5030442;28;20491;-74
2021/01/18 00:05:06;;;;;;;18.90;11.10;;;;;;;-4.81;64.16;100944.25;5012717;28;20029;-72
2021/01/18 00:07:48;;;;;;;24.10;12.23;;;;;;;-4.83;64.34;100944.84;5030442;28;20026;-72
2021/01/18 00:10:21;;;;;;;20.77;11.70;;;;;;;-4.46;63.88;100992.41;5019517;28;20025;-73
2021/01/18 00:12:50;;;;;;;25.10;13.30;;;;;;;-4.38;64.16;100996.63;5029971;28;20479;-72
2021/01/18 00:15:17;;;;;;;28.63;14.07;;;;;;;-4.42;64.18;100997.03;5029684;28;20127;-73
2021/01/18 00:17:43;;;;;;;41.30;16.13;;;;;;;-4.56;63.92;100993.06;5029579;28;20141;-71
2021/01/18 00:20:13;;;;;;;61.60;22.67;;;;;;;-4.55;64.56;101015.03;5029944;28;20526;-71
2021/01/18 00:22:43;;;;;;;45.57;19.47;;;;;;;-4.71;64.94;101007.47;5029743;28;20061;-74
2021/01/18 00:25:11;;;;;;;33.97;15.63;;;;;;;-4.69;65.36;101025.25;5028635;28;20439;-72
2021/01/18 00:27:38;;;;;;;37.80;18.50;;;;;;;-4.73;65.87;101024.03;5029751;28;20475;-72
2021/01/18 00:30:08;;;;;;;53.50;21.67;;;;;;;-4.67;65.17;101038.00;5029390;28;20064;-73
2021/01/18 00:32:34;;;;;;;40.07;16.13;;;;;;;-4.74;65.31;101044.91;5027834;28;20029;-74
2021/01/18 00:34:59;;;;;;;23.73;12.10;;;;;;;-4.80;65.66;101033.28;5030436;28;20107;-72
2021/01/18 00:37:24;;;;;;;26.77;12.40;;;;;;;-5.03;65.63;101030.09;5030051;28;20033;-72
2021/01/18 00:39:50;;;;;;;22.30;11.33;;;;;;;-5.01;65.74;101041.97;5030456;28;20461;-72
2021/01/18 00:42:20;;;;;;;19.07;10.13;;;;;;;-5.10;66.08;101045.25;5012747;28;20064;-71
2021/01/18 00:44:46;;;;;;;21.50;10.00;;;;;;;-5.15;66.63;101053.06;5029982;28;20467;-71
2021/01/18 00:47:12;;;;;;;23.43;10.53;;;;;;;-5.53;67.37;101060.72;5030068;28;20109;-73
2021/01/18 00:49:38;;;;;;;18.33;11.20;;;;;;;-5.38;66.48;101052.34;5030047;28;20511;-71
2021/01/18 00:52:03;;;;;;;17.70;9.67;;;;;;;-5.28;66.40;101051.72;5012214;28;20026;-73
2021/01/18 00:54:29;;;;;;;22.07;10.77;;;;;;;-5.27;65.41;101053.50;5012222;28;20486;-75
2021/01/18 00:56:54;;;;;;;16.30;9.37;;;;;;;-5.25;65.43;101048.63;5030084;28;20602;-75
2021/01/18 00:59:19;;;;;;;18.30;9.57;;;;;;;-5.26;65.55;101051.88;5029469;28;20026;-75
2021/01/18 01:01:45;;;;;;;19.03;10.53;;;;;;;-5.29;65.63;101054.06;5028135;28;20026;-76
2021/01/18 01:04:11;;;;;;;17.97;10.20;;;;;;;-5.34;65.79;101045.13;5017114;28;20502;-75
2021/01/18 01:06:36;;;;;;;23.23;9.67;;;;;;;-5.11;65.67;101058.59;5029380;28;20519;-75
2021/01/18 01:09:03;;;;;;;22.63;11.27;;;;;;;-4.99;65.93;101053.97;5030129;28;20022;-72
2021/01/18 01:11:29;;;;;;;17.63;10.60;;;;;;;-4.98;65.63;101055.78;5030252;28;20438;-75
2021/01/18 01:13:54;;;;;;;19.50;10.00;;;;;;;-4.97;65.74;101051.63;5015125;28;20058;-78
2021/01/18 01:16:20;;;;;;;19.47;10.60;;;;;;;-5.04;65.74;101055.13;5015845;28;20029;-70
2021/01/18 01:18:45;;;;;;;18.00;10.23;;;;;;;-5.11;66.22;101061.13;5033978;28;20398;-72
2021/01/18 01:21:11;;;;;;;19.20;9.73;;;;;;;-5.25;66.21;101043.59;5033093;28;20036;-70
2021/01/18 01:23:36;;;;;;;18.50;10.30;;;;;;;-5.11;65.80;101056.09;5033512;28;20054;-67
2021/01/18 01:26:02;;;;;;;22.43;10.03;;;;;;;-5.12;66.45;101049.25;5033629;28;20026;-70
2021/01/18 01:28:28;;;;;;;21.93;10.33;;;;;;;-5.21;66.67;101055.78;5033407;28;20056;-68
2021/01/18 01:30:53;;;;;;;19.77;10.63;;;;;;;-5.54;65.89;101033.78;5033778;28;20143;-68
2021/01/18 01:33:18;;;;;;;21.10;10.27;;;;;;;-5.48;66.48;101016.84;5033530;28;20028;-70
2021/01/18 01:35:44;;;;;;;22.00;10.93;;;;;;;-5.14;66.12;101040.63;5033150;28;20099;-69
2021/01/18 01:38:10;;;;;;;20.23;11.37;;;;;;;-5.03;66.07;101032.59;5033806;28;20030;-69
2021/01/18 01:40:35;;;;;;;21.50;11.90;;;;;;;-4.97;65.34;101039.03;5033531;28;20075;-70
2021/01/18 01:43:01;;;;;;;19.70;11.70;;;;;;;-5.21;65.30;101031.53;5033372;28;20097;-70
2021/01/18 01:45:27;;;;;;;29.10;13.40;;;;;;;-5.23;65.38;101042.16;5033339;28;20108;-70
2021/01/18 01:47:55;;;;;;;27.07;13.33;;;;;;;-5.38;66.33;101043.91;5033526;28;20104;-69
2021/01/18 01:50:26;;;;;;;27.50;13.53;;;;;;;-5.59;67.05;101034.91;5015436;28;20404;-70
2021/01/18 01:53:05;;;;;;;24.60;12.40;;;;;;;-5.53;67.11;101050.66;4998599;28;20033;-69
2021/01/18 01:55:32;;;;;;;20.27;10.85;;;;;;;-5.49;66.61;101040.19;5033305;28;20112;-70
2021/01/18 01:58:00;;;;;;;24.77;13.07;;;;;;;-5.42;66.75;101045.19;5033194;28;20057;-69
2021/01/18 02:00:37;;;;;;;22.93;13.10;;;;;;;-5.44;66.95;101040.72;5032875;28;20381;-68
2021/01/18 02:03:08;;;;;;;23.37;12.53;;;;;;;-5.18;66.85;101046.06;5033067;28;20025;-70
2021/01/18 02:05:33;;;;;;;23.93;13.30;;;;;;;-5.08;66.06;101046.31;5032811;28;20044;-70
2021/01/18 02:08:05;;;;;;;26.53;12.97;;;;;;;-5.21;66.08;101043.19;5032895;28;20033;-70
2021/01/18 02:10:32;;;;;;;27.50;13.20;;;;;;;-5.57;66.51;101034.34;5033250;28;20091;-70
2021/01/18 02:13:13;;;;;;;25.30;13.97;;;;;;;-5.56;67.38;101055.34;5032930;28;20030;-67
2021/01/18 02:16:16;;;;;;;25.93;13.90;;;;;;;-5.62;68.05;101068.16;5015385;28;20404;-69
2021/01/18 02:18:42;;;;;;;28.73;13.87;;;;;;;-5.78;68.24;101073.09;5020831;28;20112;-68
2021/01/18 02:21:25;;;;;;;24.07;12.80;;;;;;;-5.92;68.82;101064.03;5032287;28;20120;-67
2021/01/18 02:24:20;;;;;;;20.80;12.63;;;;;;;-5.99;68.45;101074.16;5021321;28;20054;-68
2021/01/18 02:27:12;;;;;;;18.03;10.27;;;;;;;-6.43;68.08;101083.47;5032339;28;20052;-69
2021/01/18 02:29:53;;;;;;;20.50;10.93;;;;;;;-6.39;68.64;101092.22;5032289;28;20095;-68
2021/01/18 02:32:46;;;;;;;20.03;10.47;;;;;;;-6.30;68.64;101089.91;5021653;28;20037;-68
2021/01/18 02:35:43;;;;;;;18.30;9.10;;;;;;;-6.19;67.87;101089.50;5032261;28;20051;-66
2021/01/18 02:38:24;;;;;;;19.03;9.63;;;;;;;-6.09;67.22;101104.88;5032441;28;20026;-72
2021/01/18 02:41:08;;;;;;;18.83;10.50;;;;;;;-6.03;67.49;101110.59;5032016;28;20491;-68
2021/01/18 02:43:40;;;;;;;19.47;10.00;;;;;;;-6.05;66.49;101081.88;5032462;28;20017;-66
2021/01/18 02:46:07;;;;;;;21.13;10.13;;;;;;;-5.90;66.81;101099.38;5032185;28;20112;-68
2021/01/18 02:48:33;;;;;;;20.40;10.87;;;;;;;-6.12;65.80;101091.97;5031754;28;20029;-68
2021/01/18 02:51:07;;;;;;;17.70;10.13;;;;;;;-6.23;65.41;101054.66;5032547;28;20021;-68
2021/01/18 02:53:32;;;;;;;21.43;12.03;;;;;;;-5.79;65.05;101109.03;5031324;28;20083;-66
2021/01/18 02:55:58;;;;;;;24.50;11.00;;;;;;;-5.77;65.52;101115.13;5032219;28;20434;-69
2021/01/18 02:58:24;;;;;;;21.67;10.77;;;;;;;-5.67;65.14;101106.97;5031787;28;20022;-67
2021/01/18 03:01:05;;;;;;;20.13;10.40;;;;;;;-5.65;64.87;101105.53;5030758;28;20041;-68
2021/01/18 03:04:05;;;;;;;22.00;10.67;;;;;;;-5.65;64.64;101100.50;5030375;28;20036;-69
2021/01/18 03:06:41;;;;;;;22.17;11.03;;;;;;;-5.69;65.03;101104.28;4921480;29;20624;-68
2021/01/18 03:09:21;;;;;;;24.23;12.63;;;;;;;-5.73;64.98;101091.19;4932142;29;20028;-71
2021/01/18 03:11:50;;;;;;;22.57;12.07;;;;;;;-5.66;65.64;101098.69;4922671;29;20036;-71
2021/01/18 03:14:26;;;;;;;21.88;11.02;;;;;;;-5.68;65.08;101101.06;4931866;29;20487;-70
2021/01/18 03:16:55;;;;;;;24.90;11.90;;;;;;;-5.91;65.24;101047.31;4931952;29;20451;-71
2021/01/18 03:19:30;;;;;;;18.67;11.15;;;;;;;-5.66;65.47;101108.75;4931820;29;20119;-69
2021/01/18 03:21:55;;;;;;;20.13;10.53;;;;;;;-5.69;65.67;101083.28;4931742;29;20035;-73
2021/01/18 03:24:22;;;;;;;19.43;10.73;;;;;;;-5.71;65.25;101085.63;4931641;29;20051;-71
2021/01/18 03:26:48;;;;;;;23.00;13.10;;;;;;;-5.88;65.43;101060.19;4931998;29;20086;-70
2021/01/18 03:29:14;;;;;;;20.77;12.07;;;;;;;-5.62;65.18;101094.91;4932011;29;20028;-70
2021/01/18 03:31:39;;;;;;;20.30;10.83;;;;;;;-5.79;65.43;101073.81;4932033;29;20023;-69
2021/01/18 03:34:05;;;;;;;19.07;10.00;;;;;;;-5.81;66.09;101097.00;4931987;29;20039;-70
2021/01/18 03:36:31;;;;;;;19.23;10.80;;;;;;;-5.83;66.00;101099.34;4930948;29;20079;-71
2021/01/18 03:38:56;;;;;;;17.90;9.80;;;;;;;-5.80;66.73;101099.69;4932086;29;20095;-71
2021/01/18 03:41:22;;;;;;;20.47;10.43;;;;;;;-6.02;65.79;101062.13;4932004;29;20426;-70
2021/01/18 03:43:47;;;;;;;21.53;10.47;;;;;;;-5.87;65.74;101107.25;4992694;28;20045;-70
2021/01/18 03:46:13;;;;;;;17.40;10.30;;;;;;;-5.93;66.13;101111.59;5011468;28;20113;-69
2021/01/18 03:48:38;;;;;;;18.07;10.27;;;;;;;-6.09;66.18;101119.06;5011749;28;20040;-69
2021/01/18 03:51:04;;;;;;;17.50;10.47;;;;;;;-6.35;66.36;101072.66;5010982;28;20022;-68
2021/01/18 03:53:29;;;;;;;17.87;9.70;;;;;;;-6.22;67.05;101111.75;5011224;28;20022;-74
2021/01/18 03:55:55;;;;;;;18.80;9.93;;;;;;;-6.41;67.69;101099.59;5010653;28;20036;-69
2021/01/18 03:58:20;;;;;;;17.57;9.63;;;;;;;-6.33;67.69;101118.06;5011111;28;20033;-70
2021/01/18 04:00:45;;;;;;;21.83;10.33;;;;;;;-6.30;67.53;101118.44;5010665;28;20022;-70
2021/01/18 04:03:11;;;;;;;26.47;11.10;;;;;;;-6.21;67.42;101121.97;5010564;28;20029;-69
2021/01/18 04:05:37;;;;;;;25.73;12.87;;;;;;;-6.09;66.88;101129.09;5009726;28;20494;-67
2021/01/18 04:08:02;;;;;;;22.07;12.07;;;;;;;-6.03;67.04;101133.22;5010552;28;20022;-70
2021/01/18 04:10:29;;;;;;;29.10;18.07;;;;;;;-6.00;67.10;101139.34;5010691;28;20033;-71
2021/01/18 04:12:56;;;;;;;22.33;12.80;;;;;;;-5.97;66.70;101142.16;5010276;28;20482;-71
2021/01/18 04:15:24;;;;;;;23.80;11.03;;;;;;;-6.07;67.10;101138.66;5010612;28;20456;-70
2021/01/18 04:17:52;;;;;;;17.57;9.97;;;;;;;-6.03;67.36;101137.34;5010731;28;20543;-71
2021/01/18 04:20:19;;;;;;;35.13;16.87;;;;;;;-6.02;67.00;101144.16;4992345;28;20038;-68
2021/01/18 04:22:56;;;;;;;50.50;22.43;;;;;;;-6.11;67.18;101144.03;5011067;28;20026;-70
2021/01/18 04:25:25;;;;;;;51.23;24.77;;;;;;;-6.26;67.34;101135.63;5030890;28;20029;-69
2021/01/18 04:27:54;;;;;;;28.53;15.53;;;;;;;-6.18;67.27;101146.56;5030491;28;20033;-70
2021/01/18 04:30:21;;;;;;;25.70;13.95;;;;;;;-6.23;67.51;101150.16;5030934;28;20092;-70
2021/01/18 04:33:00;;;;;;;26.30;12.80;;;;;;;-6.55;67.83;101104.69;5030264;28;20112;-70
2021/01/18 04:35:27;;;;;;;24.95;11.63;;;;;;;-6.36;67.91;101152.91;5026978;28;20029;-70
2021/01/18 04:37:56;;;;;;;19.07;10.60;;;;;;;-6.24;68.15;101155.91;5029946;28;20507;-70
2021/01/18 04:40:22;;;;;;;20.90;12.55;;;;;;;-6.12;67.97;101157.31;5029222;28;20025;-70
2021/01/18 04:42:49;;;;;;;27.77;13.90;;;;;;;-6.14;67.97;101148.72;5030566;28;20029;-71
2021/01/18 04:45:17;;;;;;;23.00;12.43;;;;;;;-6.23;67.72;101148.56;5030000;28;20025;-70
2021/01/18 04:47:44;;;;;;;21.23;11.10;;;;;;;-6.05;66.85;101152.25;5033118;28;20124;-71
2021/01/18 04:50:15;;;;;;;25.43;12.13;;;;;;;-5.92;66.84;101151.09;5025866;28;20506;-70
2021/01/18 04:52:53;;;;;;;22.23;11.67;;;;;;;-5.82;66.55;101155.56;5034146;28;20075;-74
2021/01/18 04:55:50;;;;;;;22.50;11.27;;;;;;;-5.89;66.15;101159.91;5032738;28;20442;-72
2021/01/18 04:58:17;;;;;;;22.10;11.10;;;;;;;-5.90;66.21;101168.16;5028273;28;20034;-71
2021/01/18 05:00:52;;;;;;;20.07;11.17;;;;;;;-5.89;65.64;101149.84;5033496;28;20041;-74
2021/01/18 05:03:25;;;;;;;18.00;10.27;;;;;;;-5.79;65.48;101169.38;5016621;28;20021;-74
2021/01/18 05:06:22;;;;;;;24.47;10.97;;;;;;;-5.91;65.43;101157.94;5033605;28;20405;-74
2021/01/18 05:09:18;;;;;;;26.50;12.47;;;;;;;-5.90;65.30;101168.16;5034267;28;20037;-74
2021/01/18 05:11:50;;;;;;;22.37;11.47;;;;;;;-5.96;65.82;101162.44;5008626;28;20037;-74
2021/01/18 05:14:16;;;;;;;23.23;11.50;;;;;;;-5.94;66.10;101171.06;5032979;28;20030;-72
2021/01/18 05:16:45;;;;;;;22.90;11.40;;;;;;;-5.89;66.02;101171.59;5033003;28;20068;-75
2021/01/18 05:19:14;;;;;;;15.35;9.35;;;;;;;-5.94;65.49;101171.06;5016005;28;20472;-75
2021/01/18 05:21:41;;;;;;;23.45;11.82;;;;;;;-6.09;65.96;101169.31;5033706;28;20078;-75
2021/01/18 05:24:07;;;;;;;23.60;12.57;;;;;;;-6.16;66.40;101182.81;5033926;28;20049;-74
2021/01/18 05:26:33;;;;;;;32.53;14.77;;;;;;;-6.18;66.83;101182.66;5033113;28;20072;-74
2021/01/18 05:28:59;;;;;;;23.53;12.53;;;;;;;-6.29;66.36;101183.03;5031711;28;20432;-70
2021/01/18 05:31:27;;;;;;;20.60;11.83;;;;;;;-6.45;66.69;101182.88;5032724;28;20022;-67
2021/01/18 05:34:26;;;;;;;21.50;11.40;;;;;;;-6.61;67.62;101197.78;5032976;28;20032;-67
2021/01/18 05:36:52;;;;;;;22.90;12.20;;;;;;;-6.71;67.61;101195.81;4950150;28;20046;-69
2021/01/18 05:39:20;;;;;;;23.97;12.17;;;;;;;-6.71;67.90;101193.28;4949929;28;20038;-69
2021/01/18 05:41:48;;;;;;;21.80;11.60;;;;;;;-6.71;68.44;101203.34;4951504;28;20027;-70
2021/01/18 05:44:14;;;;;;;24.13;12.17;;;;;;;-6.72;67.96;101191.50;4951365;28;20649;-69
2021/01/18 05:46:42;;;;;;;22.13;12.30;;;;;;;-6.60;67.67;101196.19;4941404;29;20083;-70
2021/01/18 05:49:19;;;;;;;22.70;11.40;;;;;;;-6.70;67.41;101167.47;4939464;28;20023;-70
2021/01/18 05:51:52;;;;;;;23.07;11.37;;;;;;;-6.55;66.54;101180.03;4936618;29;20118;-70
2021/01/18 05:54:22;;;;;;;21.17;11.27;;;;;;;-6.50;66.58;101189.88;4938814;28;20110;-71
2021/01/18 05:56:48;;;;;;;22.73;12.03;;;;;;;-6.76;66.76;101148.31;4937043;28;20509;-71
2021/01/18 05:59:25;;;;;;;21.63;11.50;;;;;;;-6.40;66.63;101194.34;4939072;28;20035;-71
2021/01/18 06:01:54;;;;;;;21.77;11.83;;;;;;;-6.49;66.26;101190.78;4936941;28;20040;-71
2021/01/18 06:04:21;;;;;;;29.90;14.50;;;;;;;-6.63;66.96;101185.75;4939513;28;20409;-71
2021/01/18 06:06:59;;;;;;;23.17;12.80;;;;;;;-6.55;66.78;101197.63;4936804;28;20058;-71
2021/01/18 06:09:46;;;;;;;23.40;12.07;;;;;;;-6.75;67.64;101196.19;4939559;28;20183;-72
2021/01/18 06:12:27;;;;;;;21.70;11.73;;;;;;;-6.83;68.33;101202.81;4969704;28;20396;-71
2021/01/18 06:15:07;;;;;;;22.83;11.40;;;;;;;-6.97;68.94;101206.94;5032594;28;20033;-71
2021/01/18 06:17:33;;;;;;;20.92;10.80;;;;;;;-7.18;68.96;101203.66;5032985;28;20034;-72
2021/01/18 06:20:02;;;;;;;25.37;11.67;;;;;;;-7.23;69.45;101203.09;5032650;28;20056;-74
2021/01/18 06:22:29;;;;;;;24.43;12.40;;;;;;;-7.20;69.47;101212.59;5032824;28;20116;-71
2021/01/18 06:24:56;;;;;;;25.47;13.53;;;;;;;-7.16;69.99;101223.19;5032536;28;20075;-72
2021/01/18 06:27:33;;;;;;;24.97;13.83;;;;;;;-7.43;69.82;101163.09;5032565;28;20064;-71
2021/01/18 06:29:59;;;;;;;23.87;11.50;;;;;;;-7.22;70.08;101227.47;5030152;28;20025;-71
2021/01/18 06:32:29;;;;;;;24.53;13.33;;;;;;;-7.34;70.78;101211.88;5032794;28;20105;-72
2021/01/18 06:34:57;;;;;;;24.67;12.97;;;;;;;-7.29;71.21;101196.47;5032489;28;20063;-72
2021/01/18 06:37:29;;;;;;;23.03;12.80;;;;;;;-7.09;71.14;101233.97;5032638;28;20017;-73
2021/01/18 06:40:02;;;;;;;27.27;14.53;;;;;;;-7.00;71.00;101235.97;5032116;28;20044;-71
2021/01/18 06:42:29;;;;;;;29.43;15.30;;;;;;;-6.94;70.59;101248.34;5032368;28;20030;-71
2021/01/18 06:44:55;;;;;;;34.23;16.43;;;;;;;-7.33;70.95;101187.69;5014961;28;20406;-70
2021/01/18 06:47:31;;;;;;;31.23;15.13;;;;;;;-7.05;72.02;101246.16;5032299;28;20053;-71
2021/01/18 06:50:00;;;;;;;26.20;14.60;;;;;;;-7.29;71.74;101194.84;5032395;28;20112;-71
2021/01/18 06:52:31;;;;;;;27.35;14.65;;;;;;;-7.07;73.13;101256.00;5032161;28;20029;-71
2021/01/18 06:55:01;;;;;;;23.17;11.93;;;;;;;-7.39;73.61;101217.03;5032375;28;20447;-71
2021/01/18 06:57:51;;;;;;;30.93;16.40;;;;;;;-6.98;73.29;101263.75;5032421;28;20095;-73
2021/01/18 07:00:18;;;;;;;36.33;16.97;;;;;;;-6.85;73.14;101268.63;5032124;28;20040;-75
2021/01/18 07:03:21;;;;;;;33.63;16.13;;;;;;;-6.93;73.31;101262.66;5013775;28;20112;-73
2021/01/18 07:05:47;;;;;;;29.87;14.83;;;;;;;-7.02;73.80;101264.97;4935430;29;20126;-73
2021/01/18 07:08:13;;;;;;;29.80;16.93;;;;;;;-6.82;73.62;101261.44;4951836;29;20047;-74
2021/01/18 07:10:45;;;;;;;29.83;15.90;;;;;;;-6.77;73.06;101212.66;4951579;28;20054;-73
2021/01/18 07:13:11;;;;;;;33.63;16.37;;;;;;;-6.30;73.13;101246.56;4951244;29;20034;-73
2021/01/18 07:15:39;;;;;;;30.27;16.53;;;;;;;-6.06;72.75;101251.00;4951390;29;20040;-76
2021/01/18 07:18:07;;;;;;;33.13;17.57;;;;;;;-5.90;72.50;101252.75;4951266;29;20092;-74
2021/01/18 07:20:41;;;;;;;33.47;17.67;;;;;;;-5.71;72.36;101241.56;4951440;29;20151;-75
2021/01/18 07:23:06;;;;;;;32.87;17.27;;;;;;;-5.48;71.78;101247.41;4951288;29;20134;-75
2021/01/18 07:25:42;;;;;;;33.20;17.70;;;;;;;-5.35;71.33;101258.13;4951163;29;20126;-70
2021/01/18 07:28:12;;;;;;;36.67;20.07;;;;;;;-5.32;71.17;101262.63;4951218;29;20051;-71
2021/01/18 07:30:39;;;;;;;28.40;16.47;;;;;;;-5.36;70.43;101266.41;4951301;29;20051;-71
2021/01/18 07:33:23;;;;;;;29.00;15.63;;;;;;;-5.22;70.70;101262.91;4951243;29;20093;-71
2021/01/18 07:35:48;;;;;;;30.73;17.57;;;;;;;-5.17;70.65;101258.41;4951276;29;20091;-71
2021/01/18 07:38:18;;;;;;;28.00;16.77;;;;;;;-5.07;70.25;101271.28;4951081;29;20039;-72
2021/01/18 07:41:11;;;;;;;29.30;16.30;;;;;;;-5.14;70.48;101268.84;4951134;29;20023;-73
2021/01/18 07:43:39;;;;;;;27.30;14.40;;;;;;;-5.19;70.99;101270.81;4949070;29;20074;-72
2021/01/18 07:46:26;;;;;;;32.07;16.90;;;;;;;-5.03;71.15;101271.81;4951101;29;20031;-70
2021/01/18 07:48:52;;;;;;;32.97;17.27;;;;;;;-4.76;71.11;101274.72;4951130;29;20043;-70
2021/01/18 07:51:23;;;;;;;35.73;17.97;;;;;;;-4.60;70.35;101273.19;4951323;29;20086;-68
2021/01/18 07:53:49;;;;;;;27.80;16.00;;;;;;;-4.50;70.34;101275.06;4951085;29;20043;-70
2021/01/18 07:56:27;;;;;;;26.83;15.47;;;;;;;-4.27;70.21;101277.56;4951077;29;20089;-71
2021/01/18 07:59:05;;;;;;;31.43;16.60;;;;;;;-4.18;69.35;101280.19;4950769;29;20062;-70
2021/01/18 08:01:31;;;;;;;25.40;16.07;;;;;;;-4.11;69.49;101289.31;4938962;29;20059;-71
2021/01/18 08:04:19;;;;;;;29.63;15.57;;;;;;;-3.92;69.41;101283.00;4951040;29;20464;-70
2021/01/18 08:07:04;;;;;;;30.13;16.80;;;;;;;-3.82;68.80;101279.84;4940038;29;20077;-71
2021/01/18 08:09:31;;;;;;;32.27;18.47;;;;;;;-3.76;68.79;101259.44;4950526;29;20035;-71
2021/01/18 08:12:31;;;;;;;32.37;17.40;;;;;;;-3.74;69.08;101280.66;4950999;29;20122;-71
2021/01/18 08:14:57;;;;;;;32.33;16.83;;;;;;;-3.69;68.89;101268.56;4950597;29;20050;-71
2021/01/18 08:17:23;;;;;;;294.47;75.17;;;;;;;-3.57;68.42;101267.34;4950795;29;20505;-75
2021/01/18 08:20:10;;;;;;;37.43;20.80;;;;;;;-3.45;68.08;101262.66;4969475;28;20049;-71
2021/01/18 08:22:36;;;;;;;29.53;18.10;;;;;;;-3.50;67.89;101272.31;5015801;28;20033;-70
2021/01/18 08:25:04;;;;;;;33.30;16.17;;;;;;;-3.32;67.87;101269.94;5034892;28;20037;-71
2021/01/18 08:27:39;;;;;;;33.93;19.77;;;;;;;-3.01;67.56;101266.44;5035232;28;20029;-72
2021/01/18 08:30:32;;;;;;;33.43;19.33;;;;;;;-2.82;67.02;101269.22;5034649;28;20068;-71
2021/01/18 08:33:00;;;;;;;30.57;18.70;;;;;;;-2.80;67.51;101266.88;5034907;28;20435;-71
2021/01/18 08:35:39;;;;;;;31.57;16.37;;;;;;;-3.09;67.76;101279.88;5034561;28;20091;-71
2021/01/18 08:38:06;;;;;;;;;;;;;;;-2.96;68.01;101275.38;5034494;28;20122;-74
2021/01/18 08:40:41;;;;;;;35.73;19.43;;;;;;;-2.99;67.85;101286.78;5034388;28;19909;-73
2021/01/18 08:43:07;;;;;;;33.20;18.70;;;;;;;-3.06;68.77;101276.81;5034780;28;20035;-74
2021/01/18 08:45:36;;;;;;;32.27;17.33;;;;;;;-3.07;68.25;101275.91;5034351;28;20034;-73
2021/01/18 08:48:13;;;;;;;29.90;17.00;;;;;;;-2.69;67.86;101270.47;5034284;28;20025;-73
2021/01/18 08:50:46;;;;;;;28.30;15.23;;;;;;;-2.65;66.13;101253.28;5034327;28;20056;-74
2021/01/18 08:53:34;;;;;;;30.20;17.23;;;;;;;-2.52;66.77;101250.34;5033822;28;20076;-73
2021/01/18 08:56:21;;;;;;;28.37;15.57;;;;;;;-2.39;66.63;101249.97;5034410;28;20040;-74
2021/01/18 08:58:47;;;;;;;25.10;14.10;;;;;;;-2.74;65.41;101251.44;5034189;28;20036;-73
2021/01/18 09:01:19;;;;;;;23.00;13.87;;;;;;;-2.73;65.98;101258.28;5034389;28;20025;-72
2021/01/18 09:03:46;;;;;;;26.20;15.00;;;;;;;-2.69;66.47;101262.91;4999284;28;20037;-73
2021/01/18 09:06:12;;;;;;;23.37;13.50;;;;;;;-2.87;64.63;101266.97;5034266;28;20032;-73
2021/01/18 09:08:40;;;;;;;25.57;14.90;;;;;;;-2.96;65.14;101254.28;5034360;28;20025;-76
2021/01/18 09:11:08;;;;;;;26.37;15.37;;;;;;;-2.88;64.83;101227.28;5015949;28;20130;-74
2021/01/18 09:13:35;;;;;;;26.43;14.40;;;;;;;-2.49;64.89;101254.84;5034028;28;20040;-74
2021/01/18 09:16:04;;;;;;;27.00;15.37;;;;;;;-2.25;63.90;101245.44;5033510;28;20033;-73
2021/01/18 09:18:30;;;;;;;26.08;14.40;;;;;;;-2.38;63.08;101202.81;5033188;28;20123;-70
2021/01/18 09:20:58;;;;;;;23.53;15.23;;;;;;;-1.89;61.67;101235.53;5034490;28;20472;-70
2021/01/18 09:23:26;;;;;;;27.23;15.00;;;;;;;-2.17;62.88;101235.34;5034063;28;20416;-70
2021/01/18 09:26:19;;;;;;;28.08;15.63;;;;;;;-2.05;63.11;101248.28;5033884;28;20029;-69
2021/01/18 09:28:54;;;;;;;26.90;14.90;;;;;;;-2.35;62.61;101243.59;5033037;28;20072;-67
2021/01/18 09:31:23;;;;;;;23.27;14.73;;;;;;;-2.02;61.42;101240.13;5033447;28;20014;-70
2021/01/18 09:33:51;;;;;;;19.10;11.87;;;;;;;-2.16;60.93;101238.75;4997864;28;20037;-71
2021/01/18 09:36:20;;;;;;;27.97;16.33;;;;;;;-1.86;61.05;101230.75;5034146;28;20029;-71
2021/01/18 09:38:47;;;;;;;21.98;12.95;;;;;;;-1.73;58.35;101211.72;5033697;28;20038;-68
2021/01/18 09:41:14;;;;;;;21.13;12.60;;;;;;;-1.73;57.47;101215.16;5033435;28;20037;-67
2021/01/18 09:43:43;;;;;;;20.67;12.30;;;;;;;-1.77;58.14;101210.53;5033517;28;20403;-70
2021/01/18 09:46:09;;;;;;;;;;;;;;;-1.95;57.11;101212.16;5034126;28;20030;-69
2021/01/18 09:48:35;;;;;;;27.57;13.27;;;;;;;-1.76;56.67;101209.78;5033700;28;20408;-70
2021/01/18 09:51:09;;;;;;;23.33;12.57;;;;;;;-1.47;56.23;101197.44;5033671;28;20025;-69
2021/01/18 09:53:35;;;;;;;19.43;11.23;;;;;;;-1.38;54.73;101141.72;5015613;28;20036;-70
2021/01/18 09:56:31;;;;;;;16.63;10.33;;;;;;;-1.00;53.12;101184.09;5031717;28;20190;-70
2021/01/18 09:59:02;;;;;;;19.67;11.07;;;;;;;-1.08;55.48;101179.97;4947303;28;20035;-71
2021/01/18 10:01:33;;;;;;;16.80;9.47;;;;;;;-0.93;52.25;101178.84;4928914;29;20103;-75
2021/01/18 10:04:02;;;;;;;39.97;15.93;;;;;;;-0.69;51.83;101176.84;4950577;29;20179;-75
2021/01/18 10:06:28;;;;;;;17.70;9.50;;;;;;;-1.02;53.09;101172.94;4948218;29;20031;-77
2021/01/18 10:09:19;;;;;;;17.70;9.87;;;;;;;-1.15;53.72;101163.25;4953172;29;20182;-72
2021/01/18 10:11:46;;;;;;;17.47;10.03;;;;;;;-1.23;53.68;101156.59;4949195;29;20114;-73
2021/01/18 10:14:26;;;;;;;17.40;10.83;;;;;;;-1.09;54.32;101156.25;4952705;29;20046;-74
2021/01/18 10:17:03;;;;;;;16.27;10.03;;;;;;;-1.30;54.25;101152.56;4952478;29;20110;-74
2021/01/18 10:19:29;;;;;;;19.63;10.77;;;;;;;-1.17;54.27;101145.38;4952693;29;20035;-75
2021/01/18 10:21:55;;;;;;;21.80;12.90;;;;;;;-0.59;52.44;101141.44;4952319;29;20043;-73
2021/01/18 10:24:27;;;;;;;20.83;12.23;;;;;;;-0.33;52.94;101141.28;4951542;29;20050;-74
2021/01/18 10:27:12;;;;;;;13.50;8.90;;;;;;;-0.79;52.10;101136.19;4951395;29;20038;-74
2021/01/18 10:29:40;;;;;;;17.33;10.07;;;;;;;-0.96;52.99;101119.38;4951467;29;20039;-74
2021/01/18 10:32:06;;;;;;;21.63;12.10;;;;;;;-0.85;53.84;101088.31;4935452;29;20019;-74
2021/01/18 10:34:36;;;;;;;17.17;11.47;;;;;;;-0.67;52.89;101115.38;4964957;28;20102;-75
2021/01/18 10:37:12;;;;;;;20.30;11.90;;;;;;;-0.37;52.44;101120.59;5031167;28;20059;-75
2021/01/18 10:39:39;;;;;;;19.87;10.27;;;;;;;-0.90;51.31;101135.16;5013968;28;20041;-78
2021/01/18 10:42:10;;;;;;;18.30;10.90;;;;;;;-0.77;51.44;101122.88;5031209;28;20021;-75
2021/01/18 10:44:38;;;;;;;17.73;10.33;;;;;;;-0.94;49.89;101113.69;5031250;28;20112;-73
2021/01/18 10:47:04;;;;;;;19.90;10.37;;;;;;;-0.59;49.64;101113.53;5031618;28;20040;-76
2021/01/18 10:49:34;;;;;;;16.27;8.80;;;;;;;-1.11;51.05;101111.22;5031875;28;20446;-75
2021/01/18 10:52:00;;;;;;;18.83;10.83;;;;;;;-0.76;51.50;101106.03;5013348;28;20032;-76
2021/01/18 10:54:25;;;;;;;19.90;12.33;;;;;;;-0.75;51.69;101098.53;5013650;28;20025;-77
2021/01/18 10:56:51;;;;;;;20.37;10.67;;;;;;;-0.56;49.17;101045.34;5031521;28;20391;-75
2021/01/18 10:59:16;;;;;;;18.43;11.93;;;;;;;-0.33;49.54;101087.13;5013757;28;20035;-74
2021/01/18 11:02:07;;;;;;;18.47;10.60;;;;;;;-0.74;50.73;101054.69;5030939;28;20408;-76
2021/01/18 11:04:35;;;;;;;16.83;10.63;;;;;;;-0.42;48.17;101097.34;5012896;28;20450;-73
2021/01/18 11:07:01;;;;;;;16.23;9.73;;;;;;;-0.59;48.71;101095.78;5030897;28;20395;-75
2021/01/18 11:09:33;;;;;;;14.87;9.83;;;;;;;-0.22;47.32;101077.94;5030721;28;20036;-76
2021/01/18 11:12:00;;;;;;;18.13;10.43;;;;;;;-0.35;47.50;101081.91;5031037;28;20030;-74
2021/01/18 11:14:27;;;;;;;14.90;9.03;;;;;;;-0.42;48.73;101088.84;5030769;28;20055;-74
2021/01/18 11:17:10;;;;;;;16.00;9.40;;;;;;;-0.59;48.43;101059.41;5030837;28;20112;-75
2021/01/18 11:19:36;;;;;;;16.27;9.73;;;;;;;-0.56;48.11;101080.88;5030672;28;20041;-78
2021/01/18 11:22:03;;;;;;;15.93;10.60;;;;;;;-0.19;48.14;101066.44;5030998;28;20025;-76
2021/01/18 11:24:28;;;;;;;16.30;9.70;;;;;;;-0.55;48.43;101067.44;5030190;28;20120;-76
2021/01/18 11:26:54;;;;;;;16.67;10.60;;;;;;;-0.45;48.36;101066.59;5031056;28;20579;-76